< < Back
Terminal Aerodrome Forecast


Current Version              Previous Versions:   1  2  3  4  5  6  7  8  9  

Terminal Aerodrome Forecast

388
FTUS42 KFFC 061600 AAB
TAFATL
TAF AMD
KATL 061600Z 0616/0718 08010KT P6SM BKN150 BKN250
     FM062000 02006KT P6SM BKN250
     FM070300 34005KT P6SM SCT120
     FM071600 33010G15KT P6SM SKC=

Latest METAR

086
SAUS70 KWBC 062300 RRB
MTRATL
METAR KATL 062252Z 08008KT 10SM SCT080 BKN200 BKN250 08/M08 A3024 RMK
AO2 SLP245 ACC NE-SE-SW T00831078


USA.gov is the U.S. government's official web portal to all federal, state and local government web resources and services.